createdAt,value
2023-05-03T00:11:58.000Z,7.90
2023-05-03T00:21:58.000Z,8.90
2023-05-03T00:31:58.000Z,6.70
2023-05-03T00:41:59.000Z,7.60
2023-05-03T00:51:59.000Z,8.60
2023-05-03T01:01:59.000Z,8.70
2023-05-03T01:12:00.000Z,8.00
2023-05-03T01:22:00.000Z,9.40
2023-05-03T01:42:01.000Z,9.00
2023-05-03T01:52:01.000Z,10.10
2023-05-03T02:02:02.000Z,9.10
2023-05-03T02:12:02.000Z,9.70
2023-05-03T02:22:02.000Z,10.80
2023-05-03T02:32:03.000Z,9.90
2023-05-03T02:42:03.000Z,10.10
2023-05-03T02:52:04.000Z,10.60
2023-05-03T03:12:05.000Z,10.20
2023-05-03T03:22:05.000Z,10.00
2023-05-03T03:32:06.000Z,8.90
2023-05-03T03:42:06.000Z,10.20
2023-05-03T03:52:07.000Z,8.60
2023-05-03T04:02:07.000Z,9.10
2023-05-03T04:12:08.000Z,8.90
2023-05-03T04:22:08.000Z,9.30
2023-05-03T04:42:09.000Z,8.40
2023-05-03T04:52:10.000Z,9.00
2023-05-03T05:02:10.000Z,9.90
2023-05-03T05:12:10.000Z,8.80
2023-05-03T05:22:11.000Z,9.50
2023-05-03T07:32:28.000Z,7.40
2023-05-03T08:08:39.000Z,7.30
2023-05-03T09:00:41.000Z,6.60
2023-05-03T09:26:17.000Z,6.90
2023-05-03T09:56:52.000Z,8.10
2023-05-03T09:56:52.000Z,7.60
2023-05-03T10:06:52.000Z,5.60
2023-05-03T10:16:52.000Z,6.90
2023-05-03T10:26:52.000Z,6.60
2023-05-03T10:36:52.000Z,5.50
2023-05-03T10:46:52.000Z,6.20
2023-05-03T10:56:52.000Z,6.20
2023-05-03T11:06:52.000Z,7.00
2023-05-03T11:06:52.000Z,7.00
2023-05-03T11:26:52.000Z,6.30
2023-05-03T11:36:52.000Z,5.20
2023-05-03T11:46:53.000Z,5.30
2023-05-03T11:56:53.000Z,5.90
2023-05-03T12:06:53.000Z,6.60
2023-05-03T12:37:09.000Z,5.50
2023-05-03T12:37:09.000Z,5.30
2023-05-03T12:37:09.000Z,5.30
2023-05-03T12:37:09.000Z,5.30
2023-05-03T12:47:09.000Z,5.20
2023-05-03T12:57:09.000Z,5.50
2023-05-03T12:57:09.000Z,5.50
2023-05-03T13:07:09.000Z,5.90
2023-05-03T13:17:09.000Z,5.40
2023-05-03T13:27:09.000Z,6.60
2023-05-03T13:37:09.000Z,5.30
2023-05-03T13:47:08.000Z,6.10
2023-05-03T14:07:08.000Z,6.20
2023-05-03T14:17:08.000Z,5.00
2023-05-03T14:27:08.000Z,5.70
2023-05-03T14:37:07.000Z,4.70
2023-05-03T14:47:07.000Z,4.70
2023-05-03T14:57:07.000Z,4.40
2023-05-03T15:07:06.000Z,4.40
2023-05-03T15:17:06.000Z,4.00
2023-05-03T15:37:05.000Z,4.10
2023-05-03T15:47:04.000Z,4.40
2023-05-03T15:57:04.000Z,3.50
2023-05-03T16:07:03.000Z,3.80
2023-05-03T16:17:03.000Z,4.00
2023-05-03T16:27:03.000Z,4.20
2023-05-03T16:37:02.000Z,3.70
2023-05-03T16:47:02.000Z,3.60
2023-05-03T17:07:01.000Z,3.80
2023-05-03T17:17:01.000Z,3.60
2023-05-03T17:27:01.000Z,4.00
2023-05-03T17:37:00.000Z,4.00
2023-05-03T17:47:00.000Z,3.30
2023-05-03T17:57:00.000Z,4.50
2023-05-03T18:07:00.000Z,3.40
2023-05-03T18:16:59.000Z,4.40
2023-05-03T18:36:59.000Z,4.30
2023-05-03T18:46:59.000Z,5.10
2023-05-03T18:56:59.000Z,5.10
2023-05-03T19:06:59.000Z,5.80
2023-05-03T19:16:59.000Z,5.00
2023-05-03T19:26:59.000Z,5.60
2023-05-03T19:36:59.000Z,6.20
2023-05-03T19:47:00.000Z,6.30
2023-05-03T20:07:00.000Z,6.10
2023-05-03T20:17:01.000Z,6.90
2023-05-03T20:27:01.000Z,6.80
2023-05-03T20:37:01.000Z,7.00
2023-05-03T20:47:02.000Z,6.20
2023-05-03T20:57:02.000Z,6.90
2023-05-03T21:07:03.000Z,7.20
2023-05-03T21:17:03.000Z,6.50
2023-05-03T21:37:04.000Z,6.00
2023-05-03T21:47:05.000Z,6.50
2023-05-03T21:57:05.000Z,7.80
2023-05-03T22:07:06.000Z,7.10
2023-05-03T22:17:06.000Z,6.10
2023-05-03T22:27:07.000Z,7.00
2023-05-03T22:37:08.000Z,7.10
2023-05-03T22:47:08.000Z,6.50
2023-05-03T23:07:09.000Z,7.80
2023-05-03T23:17:10.000Z,8.30
2023-05-03T23:27:11.000Z,9.40
2023-05-03T23:37:11.000Z,9.10
2023-05-03T23:47:12.000Z,8.20
2023-05-03T23:57:13.000Z,6.80
